Time;durP1;ratioP1;P1;durP2;ratioP2;P2;SDS_P1;SDS_P2;PMS_P1;PMS_P2;Temp;Humidity;BMP_temperature;BMP_pressure;BME280_temperature;BME280_humidity;BME280_pressure;Samples;Min_cycle;Max_cycle;Signal;HPM_P1;HPM_P2
2022/08/21 00:01:26;;;;;;;2.53;1.25;;;26.30;44.50;;;;;;5020050;28;20376;-58
2022/08/21 00:03:54;;;;;;;2.45;1.38;;;26.30;44.50;;;;;;5026425;28;20037;-57
2022/08/21 00:06:21;;;;;;;2.53;1.33;;;26.30;44.50;;;;;;5026378;28;20452;-57
2022/08/21 00:08:46;;;;;;;2.88;1.10;;;26.30;44.60;;;;;;5026162;28;20109;-56
2022/08/21 00:11:13;;;;;;;2.45;1.20;;;26.20;44.50;;;;;;5025528;28;20116;-57
2022/08/21 00:13:39;;;;;;;1.77;1.10;;;26.20;44.60;;;;;;5024054;28;20037;-57
2022/08/21 00:16:05;;;;;;;3.53;1.60;;;26.20;44.60;;;;;;5026543;28;20113;-58
2022/08/21 00:18:32;;;;;;;3.33;1.17;;;26.30;44.70;;;;;;5025026;28;20112;-58
2022/08/21 00:20:58;;;;;;;3.05;1.20;;;26.20;44.70;;;;;;5028870;28;20352;-58
2022/08/21 00:23:24;;;;;;;1.25;1.10;;;26.20;44.70;;;;;;5028268;28;20117;-57
2022/08/21 00:25:49;;;;;;;2.25;1.00;;;26.20;44.70;;;;;;5026071;28;20120;-58
2022/08/21 00:28:16;;;;;;;2.38;1.23;;;26.20;44.70;;;;;;5028874;28;20042;-58
2022/08/21 00:30:43;;;;;;;2.40;1.30;;;26.20;44.70;;;;;;5027405;28;20061;-59
2022/08/21 00:33:10;;;;;;;2.65;1.35;;;26.20;44.80;;;;;;5023550;28;20049;-58
2022/08/21 00:35:39;;;;;;;3.40;1.30;;;26.20;44.80;;;;;;5023049;28;20507;-57
2022/08/21 00:38:07;;;;;;;2.28;1.20;;;26.10;44.80;;;;;;5028378;28;20022;-57
2022/08/21 00:40:44;;;;;;;3.10;1.52;;;26.10;44.80;;;;;;5027704;28;20173;-58
2022/08/21 00:43:12;;;;;;;2.35;1.00;;;26.10;44.80;;;;;;5024014;28;20030;-56
2022/08/21 00:45:38;;;;;;;5.18;1.67;;;26.10;44.80;;;;;;5027316;28;20033;-53
2022/08/21 00:48:04;;;;;;;2.15;1.13;;;26.10;44.90;;;;;;5029086;28;20108;-57
2022/08/21 00:50:33;;;;;;;2.35;1.15;;;26.10;45.50;;;;;;5027520;28;20033;-58
2022/08/21 00:53:01;;;;;;;3.28;1.30;;;26.10;44.90;;;;;;5022366;28;20045;-57
2022/08/21 00:55:28;;;;;;;2.15;1.10;;;26.10;44.90;;;;;;5028438;28;20056;-58
2022/08/21 00:57:56;;;;;;;1.95;1.08;;;26.10;44.90;;;;;;5029000;28;20906;-56
2022/08/21 01:00:28;;;;;;;3.30;1.33;;;26.00;44.90;;;;;;5026160;28;20043;-56
2022/08/21 01:02:56;;;;;;;2.15;1.40;;;26.10;45.00;;;;;;5030054;28;20360;-59
2022/08/21 01:05:22;;;;;;;2.17;1.10;;;26.10;45.00;;;;;;5027473;28;20061;-59
2022/08/21 01:07:48;;;;;;;1.52;1.10;;;26.00;45.00;;;;;;5033015;28;20025;-58
2022/08/21 01:10:16;;;;;;;1.77;1.30;;;26.00;45.00;;;;;;5029674;28;20041;-58
2022/08/21 01:12:42;;;;;;;1.63;1.15;;;26.00;45.00;;;;;;5032414;28;20144;-57
2022/08/21 01:15:10;;;;;;;2.92;1.23;;;26.00;45.00;;;;;;5031435;28;20059;-56
2022/08/21 01:17:37;;;;;;;2.38;1.20;;;26.00;45.00;;;;;;5030894;28;20026;-57
2022/08/21 01:20:06;;;;;;;3.13;1.33;;;26.00;45.00;;;;;;5026854;28;20108;-59
2022/08/21 01:22:32;;;;;;;2.97;1.40;;;26.00;45.10;;;;;;5031624;28;20037;-58
2022/08/21 01:24:58;;;;;;;3.05;1.25;;;26.00;45.10;;;;;;5030843;28;20052;-56
2022/08/21 01:27:24;;;;;;;3.22;1.40;;;26.00;45.10;;;;;;5032281;28;20448;-59
2022/08/21 01:29:59;;;;;;;2.28;1.45;;;26.00;45.20;;;;;;5027671;28;20045;-59
2022/08/21 01:32:25;;;;;;;3.13;1.30;;;26.00;45.10;;;;;;5027966;28;20113;-58
2022/08/21 01:34:52;;;;;;;3.00;1.52;;;25.90;45.10;;;;;;5026959;28;20397;-57
2022/08/21 01:37:20;;;;;;;2.53;1.42;;;25.90;45.10;;;;;;5028428;28;20049;-56
2022/08/21 01:39:46;;;;;;;2.88;1.63;;;25.90;45.10;;;;;;5028898;28;20033;-57
2022/08/21 01:42:13;;;;;;;3.65;1.30;;;25.90;45.20;;;;;;5032341;28;20038;-56
2022/08/21 01:44:39;;;;;;;2.72;1.30;;;25.90;45.30;;;;;;5031466;28;20037;-58
2022/08/21 01:47:08;;;;;;;2.72;1.70;;;25.80;45.10;;;;;;5030246;28;20041;-57
2022/08/21 01:49:35;;;;;;;3.40;1.67;;;25.90;45.20;;;;;;5028870;28;20124;-58
2022/08/21 01:52:03;;;;;;;2.67;1.42;;;25.80;45.10;;;;;;5031791;28;20030;-57
2022/08/21 01:54:29;;;;;;;2.92;1.73;;;25.90;45.20;;;;;;5030697;28;21520;-59
2022/08/21 01:56:56;;;;;;;2.58;1.50;;;25.80;45.10;;;;;;5031116;28;20071;-58
2022/08/21 01:59:24;;;;;;;1.73;1.25;;;25.80;45.20;;;;;;5029474;28;20389;-57
2022/08/21 02:01:49;;;;;;;3.30;1.40;;;25.80;45.20;;;;;;5029255;28;20459;-57
2022/08/21 02:04:16;;;;;;;2.50;1.20;;;25.80;45.20;;;;;;5030738;28;20034;-56
2022/08/21 02:06:42;;;;;;;5.13;1.40;;;25.80;45.20;;;;;;5031035;28;20052;-58
2022/08/21 02:09:10;;;;;;;2.15;1.15;;;25.80;45.20;;;;;;5029340;28;20029;-53
2022/08/21 02:11:40;;;;;;;2.67;1.52;;;25.80;45.80;;;;;;5028393;28;20040;-59
2022/08/21 02:14:07;;;;;;;2.65;1.20;;;25.80;45.20;;;;;;5026874;28;20045;-58
2022/08/21 02:16:33;;;;;;;2.75;1.40;;;25.80;45.20;;;;;;5018845;28;20018;-56
2022/08/21 02:18:59;;;;;;;3.75;1.50;;;25.80;45.20;;;;;;5028107;28;20037;-58
2022/08/21 02:21:25;;;;;;;2.65;2.08;;;25.80;45.20;;;;;;5030516;28;20022;-57
2022/08/21 02:23:51;;;;;;;1.83;1.23;;;25.70;45.20;;;;;;5031126;28;20033;-58
2022/08/21 02:26:17;;;;;;;2.70;1.40;;;25.70;45.20;;;;;;5030228;28;20036;-58
2022/08/21 02:28:43;;;;;;;1.70;1.23;;;25.70;45.20;;;;;;5030422;28;20345;-59
2022/08/21 02:31:09;;;;;;;2.72;1.48;;;25.70;45.20;;;;;;5029423;28;20372;-58
2022/08/21 02:33:35;;;;;;;2.72;1.30;;;25.70;45.20;;;;;;5026553;28;20373;-57
2022/08/21 02:36:02;;;;;;;1.63;1.20;;;25.70;45.20;;;;;;5028496;28;20017;-57
2022/08/21 02:38:34;;;;;;;2.38;1.33;;;25.70;45.20;;;;;;5029542;28;20104;-58
2022/08/21 02:41:00;;;;;;;3.00;1.70;;;25.70;45.20;;;;;;5022822;28;20346;-57
2022/08/21 02:43:27;;;;;;;2.60;1.50;;;25.70;45.20;;;;;;5027079;28;20441;-58
2022/08/21 02:45:55;;;;;;;2.22;1.20;;;25.60;45.20;;;;;;5029600;28;20029;-57
2022/08/21 02:48:25;;;;;;;2.72;1.33;;;25.60;45.20;;;;;;5026055;28;20057;-57
2022/08/21 02:51:02;;;;;;;2.78;1.23;;;25.60;45.20;;;;;;5025871;28;20066;-55
2022/08/21 02:53:29;;;;;;;2.72;1.48;;;25.60;45.20;;;;;;5028789;28;20068;-58
2022/08/21 02:55:57;;;;;;;2.63;1.48;;;25.60;45.20;;;;;;5028672;28;20079;-58
2022/08/21 02:58:26;;;;;;;2.88;1.92;;;25.60;45.20;;;;;;5030706;28;20034;-57
2022/08/21 03:00:53;;;;;;;2.97;1.33;;;25.60;45.30;;;;;;5027309;28;20044;-56
2022/08/21 03:03:20;;;;;;;2.17;1.33;;;25.60;45.20;;;;;;5028403;28;20365;-57
2022/08/21 03:05:47;;;;;;;3.00;1.05;;;25.60;45.20;;;;;;5028233;28;20476;-58
2022/08/21 03:08:15;;;;;;;3.08;1.27;;;25.60;45.30;;;;;;5031405;28;20022;-59
2022/08/21 03:10:46;;;;;;;2.15;1.25;;;25.60;45.30;;;;;;5027801;28;20049;-57
2022/08/21 03:13:13;;;;;;;2.20;1.13;;;25.50;45.20;;;;;;5024462;28;20069;-57
2022/08/21 03:15:39;;;;;;;1.52;1.10;;;25.60;45.30;;;;;;5029441;28;20033;-56
2022/08/21 03:18:06;;;;;;;3.15;1.33;;;25.60;45.30;;;;;;5028621;28;20029;-57
2022/08/21 03:20:34;;;;;;;2.33;1.38;;;25.50;45.30;;;;;;5027133;28;20033;-56
2022/08/21 03:23:03;;;;;;;2.30;1.27;;;25.50;45.30;;;;;;5025757;28;20029;-57
2022/08/21 03:25:31;;;;;;;2.47;1.13;;;25.50;45.30;;;;;;5028495;28;20064;-57
2022/08/21 03:27:58;;;;;;;2.90;1.20;;;25.50;45.30;;;;;;5028521;28;20346;-57
2022/08/21 03:30:24;;;;;;;2.35;1.10;;;25.50;45.30;;;;;;5028813;28;20029;-56
2022/08/21 03:32:50;;;;;;;2.38;1.27;;;25.50;45.20;;;;;;5026324;28;20195;-58
2022/08/21 03:35:17;;;;;;;2.13;1.20;;;25.40;45.20;;;;;;5029171;28;20028;-58
2022/08/21 03:37:43;;;;;;;3.40;1.52;;;25.40;45.20;;;;;;5030995;28;20030;-56
2022/08/21 03:40:11;;;;;;;2.20;1.10;;;25.40;45.20;;;;;;5028311;28;20029;-58
2022/08/21 03:42:38;;;;;;;2.15;1.23;;;25.40;45.20;;;;;;5027626;28;20034;-58
2022/08/21 03:45:05;;;;;;;2.08;1.00;;;25.40;45.20;;;;;;5029493;28;20029;-60
2022/08/21 03:47:31;;;;;;;2.83;1.40;;;25.40;45.20;;;;;;5028668;28;20025;-57
2022/08/21 03:49:56;;;;;;;1.83;1.10;;;25.40;45.30;;;;;;5027529;28;20501;-59
2022/08/21 03:52:23;;;;;;;2.97;1.38;;;25.40;45.30;;;;;;5025831;28;20115;-59
2022/08/21 03:54:49;;;;;;;2.22;1.20;;;25.40;45.30;;;;;;5028903;28;20038;-57
2022/08/21 03:57:16;;;;;;;2.22;1.13;;;25.40;45.30;;;;;;5027068;28;20429;-58
2022/08/21 03:59:43;;;;;;;2.35;1.00;;;25.30;45.20;;;;;;5028218;28;20322;-58
2022/08/21 04:02:10;;;;;;;2.30;1.08;;;25.40;45.20;;;;;;5026804;28;20030;-58
2022/08/21 04:04:36;;;;;;;2.60;1.40;;;25.30;45.20;;;;;;5022885;28;20095;-58
2022/08/21 04:07:02;;;;;;;3.40;1.23;;;25.30;45.20;;;;;;5027212;28;20452;-55
2022/08/21 04:09:29;;;;;;;2.42;1.20;;;25.30;45.20;;;;;;5029605;28;20029;-58
2022/08/21 04:11:56;;;;;;;2.10;1.35;;;25.30;45.20;;;;;;5024604;28;20041;-56
2022/08/21 04:14:22;;;;;;;2.80;1.33;;;25.30;45.30;;;;;;5026380;28;20037;-56
2022/08/21 04:16:48;;;;;;;2.88;1.40;;;25.30;45.20;;;;;;5024622;28;20060;-56
2022/08/21 04:19:14;;;;;;;2.13;1.10;;;25.30;45.20;;;;;;5021158;28;20109;-58
2022/08/21 04:21:40;;;;;;;1.75;1.02;;;25.30;45.20;;;;;;5023947;28;20129;-58
2022/08/21 04:24:07;;;;;;;2.95;1.10;;;25.30;45.20;;;;;;5026511;28;20444;-57
2022/08/21 04:26:34;;;;;;;2.40;1.35;;;25.30;45.20;;;;;;5026165;28;20396;-58
2022/08/21 04:29:00;;;;;;;2.25;1.35;;;25.30;45.30;;;;;;5029624;28;20400;-57
2022/08/21 04:31:28;;;;;;;2.03;1.15;;;25.20;45.20;;;;;;5028374;28;20048;-57
2022/08/21 04:33:56;;;;;;;3.40;1.13;;;25.20;45.20;;;;;;5023766;28;20030;-58
2022/08/21 04:36:22;;;;;;;2.85;1.20;;;25.20;45.20;;;;;;5025192;28;20112;-58
2022/08/21 04:38:48;;;;;;;2.05;1.13;;;25.20;45.20;;;;;;5027811;28;20104;-58
2022/08/21 04:41:14;;;;;;;2.33;1.27;;;25.20;45.20;;;;;;5022654;28;20034;-59
2022/08/21 04:43:40;;;;;;;2.63;1.50;;;25.20;45.20;;;;;;5029333;28;20400;-59
2022/08/21 04:46:06;;;;;;;3.65;1.20;;;25.20;45.20;;;;;;5028502;28;20034;-57
2022/08/21 04:48:32;;;;;;;2.53;1.15;;;25.20;45.30;;;;;;5021461;28;20091;-56
2022/08/21 04:51:06;;;;;;;2.35;1.13;;;25.20;45.30;;;;;;5027370;28;20041;-59
2022/08/21 04:53:37;;;;;;;2.25;1.27;;;25.20;45.30;;;;;;5026536;28;20052;-57
2022/08/21 04:56:08;;;;;;;2.20;1.08;;;25.10;45.20;;;;;;5024769;28;20542;-58
2022/08/21 04:58:35;;;;;;;2.30;1.13;;;25.20;45.30;;;;;;5026889;28;20061;-58
2022/08/21 05:01:03;;;;;;;1.70;1.10;;;25.10;45.20;;;;;;5028017;28;20036;-58
2022/08/21 05:03:31;;;;;;;1.75;1.15;;;25.10;45.20;;;;;;5026190;28;20406;-59
2022/08/21 05:05:57;;;;;;;2.30;1.15;;;25.10;45.20;;;;;;5023403;28;20045;-59
2022/08/21 05:08:27;;;;;;;2.53;1.02;;;25.10;45.20;;;;;;5027849;28;20033;-58
2022/08/21 05:10:53;;;;;;;2.50;1.10;;;25.10;45.20;;;;;;5026101;28;20029;-59
2022/08/21 05:13:20;;;;;;;1.92;1.10;;;25.10;45.20;;;;;;5025087;28;20457;-59
2022/08/21 05:15:45;;;;;;;2.25;1.10;;;25.10;45.20;;;;;;5028776;28;20025;-58
2022/08/21 05:18:11;;;;;;;2.63;1.45;;;25.10;45.20;;;;;;5027929;28;20025;-58
2022/08/21 05:20:37;;;;;;;3.92;1.40;;;25.10;45.20;;;;;;5020092;28;20034;-59
2022/08/21 05:23:09;;;;;;;2.45;1.13;;;25.10;45.20;;;;;;5025563;28;20353;-59
2022/08/21 05:25:34;;;;;;;2.47;1.20;;;25.10;45.30;;;;;;5025972;28;20044;-58
2022/08/21 05:28:00;;;;;;;4.50;1.30;;;25.00;45.20;;;;;;5028592;28;20038;-60
2022/08/21 05:30:26;;;;;;;1.67;1.30;;;25.10;45.30;;;;;;5026164;28;20076;-59
2022/08/21 05:32:57;;;;;;;2.65;1.30;;;25.10;45.30;;;;;;5022248;28;20049;-59
2022/08/21 05:35:23;;;;;;;2.05;1.15;;;25.00;45.20;;;;;;5028024;28;20040;-58
2022/08/21 05:37:49;;;;;;;2.85;1.50;;;25.00;45.30;;;;;;5027834;28;20029;-58
2022/08/21 05:40:15;;;;;;;3.60;1.65;;;25.00;45.30;;;;;;5024733;28;20057;-57
2022/08/21 05:42:40;;;;;;;2.35;1.30;;;25.00;45.30;;;;;;5028183;28;20026;-58
2022/08/21 05:45:06;;;;;;;7.93;1.60;;;25.00;45.30;;;;;;5027777;28;20052;-59
2022/08/21 05:47:32;;;;;;;3.00;1.40;;;25.00;45.40;;;;;;5024470;28;20037;-59
2022/08/21 05:49:58;;;;;;;3.10;1.50;;;25.00;45.40;;;;;;5025638;28;20103;-58
2022/08/21 05:52:24;;;;;;;4.13;1.63;;;25.00;45.40;;;;;;5032225;28;20033;-58
2022/08/21 05:54:50;;;;;;;4.13;2.13;;;25.00;45.50;;;;;;5032325;28;20030;-59
2022/08/21 05:57:16;;;;;;;4.15;1.65;;;25.00;45.50;;;;;;5030890;28;20452;-59
2022/08/21 05:59:42;;;;;;;2.50;1.52;;;25.00;45.60;;;;;;5029636;28;20072;-58
2022/08/21 06:02:08;;;;;;;4.70;2.00;;;25.00;45.60;;;;;;5027501;28;20492;-59
2022/08/21 06:04:37;;;;;;;2.88;1.88;;;25.00;45.60;;;;;;5024892;28;20033;-58
2022/08/21 06:07:03;;;;;;;2.75;1.90;;;25.00;45.70;;;;;;5028869;28;20041;-58
2022/08/21 06:09:28;;;;;;;3.05;1.70;;;25.00;45.80;;;;;;5029677;28;20132;-59
2022/08/21 06:11:54;;;;;;;4.78;1.80;;;25.00;45.80;;;;;;5027310;28;20022;-59
2022/08/21 06:14:20;;;;;;;2.65;1.55;;;25.00;45.80;;;;;;5029140;28;20029;-58
2022/08/21 06:16:46;;;;;;;3.45;1.95;;;25.00;45.90;;;;;;5027577;28;20037;-58
2022/08/21 06:19:12;;;;;;;5.75;1.60;;;24.90;45.90;;;;;;5016726;28;20041;-57
2022/08/21 06:21:38;;;;;;;4.13;1.70;;;24.90;45.90;;;;;;5026584;28;20029;-58
2022/08/21 06:24:04;;;;;;;3.53;1.75;;;25.00;45.90;;;;;;5032047;28;20099;-55
2022/08/21 06:26:31;;;;;;;3.95;2.10;;;24.90;45.90;;;;;;5027472;28;20096;-60
2022/08/21 06:28:57;;;;;;;3.10;1.40;;;25.00;46.00;;;;;;5030252;28;20337;-58
2022/08/21 06:31:25;;;;;;;5.13;1.98;;;24.90;46.00;;;;;;5025733;28;20047;-58
2022/08/21 06:33:51;;;;;;;3.72;1.60;;;24.90;46.10;;;;;;5022115;28;20124;-57
2022/08/21 06:36:18;;;;;;;3.85;1.67;;;24.90;46.10;;;;;;5027323;28;20026;-60
2022/08/21 06:38:44;;;;;;;3.45;2.03;;;24.90;46.10;;;;;;5017134;28;20453;-55
2022/08/21 06:41:13;;;;;;;3.42;1.75;;;24.90;46.20;;;;;;5021576;28;20064;-55
2022/08/21 06:43:42;;;;;;;4.43;1.85;;;24.90;46.30;;;;;;5017154;28;20022;-57
2022/08/21 06:46:14;;;;;;;2.45;1.30;;;24.90;46.30;;;;;;5017097;28;20098;-57
2022/08/21 06:48:41;;;;;;;3.47;1.70;;;24.90;46.40;;;;;;5024129;28;20038;-59
2022/08/21 06:51:07;;;;;;;4.45;1.65;;;24.90;46.40;;;;;;5026701;28;20095;-59
2022/08/21 06:53:33;;;;;;;4.57;1.73;;;24.90;46.40;;;;;;5029877;28;20045;-61
2022/08/21 06:55:59;;;;;;;6.28;1.58;;;24.90;46.50;;;;;;5024272;28;20048;-58
2022/08/21 06:58:25;;;;;;;4.05;1.17;;;24.90;46.50;;;;;;5017379;28;20038;-59
2022/08/21 07:00:51;;;;;;;5.13;1.70;;;24.90;46.60;;;;;;5016236;28;20508;-58
2022/08/21 07:03:35;;;;;;;4.00;1.70;;;24.90;46.70;;;;;;5019046;28;20065;-59
2022/08/21 07:06:01;;;;;;;4.15;1.80;;;24.90;46.70;;;;;;5036921;28;20052;-55
2022/08/21 07:08:28;;;;;;;4.82;1.70;;;24.90;46.80;;;;;;5035681;28;20037;-56
2022/08/21 07:10:57;;;;;;;3.92;1.50;;;24.80;46.80;;;;;;5032917;28;20034;-58
2022/08/21 07:13:23;;;;;;;3.10;1.60;;;24.80;46.80;;;;;;5036459;28;20041;-57
2022/08/21 07:15:50;;;;;;;3.20;1.60;;;24.80;46.90;;;;;;5035566;28;20407;-57
2022/08/21 07:18:16;;;;;;;5.45;1.70;;;24.80;47.00;;;;;;5023525;28;20036;-58
2022/08/21 07:20:43;;;;;;;6.25;1.92;;;24.90;47.10;;;;;;5016036;28;20033;-56
2022/08/21 07:23:14;;;;;;;5.00;1.60;;;24.80;47.10;;;;;;5023105;28;20057;-59
2022/08/21 07:25:40;;;;;;;4.60;1.70;;;24.90;47.20;;;;;;5026394;28;20030;-58
2022/08/21 07:28:06;;;;;;;3.20;1.25;;;24.80;47.20;;;;;;5024612;28;20044;-57
2022/08/21 07:30:31;;;;;;;3.47;1.60;;;24.80;47.20;;;;;;5028161;28;20036;-58
2022/08/21 07:32:57;;;;;;;4.43;1.70;;;24.90;47.30;;;;;;5020928;28;20433;-58
2022/08/21 07:35:23;;;;;;;2.95;1.40;;;24.80;47.40;;;;;;5022651;28;20025;-57
2022/08/21 07:37:49;;;;;;;2.88;1.38;;;24.90;47.50;;;;;;5024186;28;20029;-59
2022/08/21 07:40:16;;;;;;;3.28;1.10;;;24.90;47.50;;;;;;5024635;28;20449;-58
2022/08/21 07:42:44;;;;;;;4.72;1.10;;;24.90;47.60;;;;;;5021368;28;20041;-57
2022/08/21 07:45:11;;;;;;;3.13;1.52;;;24.90;47.60;;;;;;5021654;28;20795;-57
2022/08/21 07:47:38;;;;;;;4.03;1.10;;;24.90;47.70;;;;;;5027385;28;20029;-56
2022/08/21 07:50:05;;;;;;;3.38;1.30;;;24.90;47.70;;;;;;5022161;28;20038;-60
2022/08/21 07:52:32;;;;;;;2.30;1.17;;;24.90;47.80;;;;;;5020732;28;20137;-62
2022/08/21 07:54:58;;;;;;;2.50;1.10;;;24.90;47.80;;;;;;5022933;28;20065;-62
2022/08/21 07:57:24;;;;;;;3.47;1.17;;;24.90;47.90;;;;;;5016075;28;20402;-60
2022/08/21 07:59:50;;;;;;;3.75;1.17;;;25.00;48.00;;;;;;5029581;28;20121;-61
2022/08/21 08:02:27;;;;;;;3.17;1.23;;;25.00;48.10;;;;;;5019615;28;20025;-59
2022/08/21 08:04:53;;;;;;;2.63;1.33;;;25.00;48.10;;;;;;5026562;28;20059;-58
2022/08/21 08:07:19;;;;;;;4.47;1.15;;;25.00;48.20;;;;;;5035602;28;20110;-59
2022/08/21 08:09:45;;;;;;;2.72;1.25;;;25.00;48.80;;;;;;5015991;28;20041;-59
2022/08/21 08:12:12;;;;;;;4.55;1.77;;;25.00;48.20;;;;;;5015906;28;20037;-60
2022/08/21 08:14:37;;;;;;;4.40;1.30;;;25.10;48.40;;;;;;5015082;28;20045;-59
2022/08/21 08:17:03;;;;;;;4.45;1.40;;;25.10;48.40;;;;;;5016267;28;20022;-60
2022/08/21 08:19:30;;;;;;;3.78;1.30;;;25.00;48.40;;;;;;5018756;28;20433;-59
2022/08/21 08:21:56;;;;;;;3.15;1.13;;;25.00;48.40;;;;;;5022992;28;20048;-57
2022/08/21 08:24:21;;;;;;;3.42;1.30;;;25.10;48.40;;;;;;5015224;28;20059;-60
2022/08/21 08:26:48;;;;;;;5.07;1.50;;;25.10;48.40;;;;;;5017058;28;20066;-67
2022/08/21 08:29:14;;;;;;;2.60;0.90;;;25.10;48.50;;;;;;5014119;28;20036;-57
2022/08/21 08:31:40;;;;;;;3.55;1.25;;;25.10;48.60;;;;;;5029221;28;20340;-59
2022/08/21 08:34:05;;;;;;;3.38;1.30;;;25.10;48.70;;;;;;5021440;28;20183;-56
2022/08/21 08:36:36;;;;;;;3.05;1.15;;;25.10;48.80;;;;;;5018966;28;20026;-62
2022/08/21 08:39:05;;;;;;;2.53;0.80;;;25.10;48.80;;;;;;5014335;28;20041;-63
2022/08/21 08:41:33;;;;;;;2.25;0.80;;;25.20;48.50;;;;;;5016434;28;20069;-57
2022/08/21 08:44:04;;;;;;;2.55;1.08;;;25.20;48.50;;;;;;5015080;28;20412;-57
2022/08/21 08:46:46;;;;;;;2.75;0.90;;;25.10;48.40;;;;;;5016075;28;20092;-59
2022/08/21 08:49:29;;;;;;;2.35;0.85;;;25.20;48.80;;;;;;5016372;28;20092;-58
2022/08/21 08:52:07;;;;;;;2.78;0.93;;;25.20;49.00;;;;;;5014912;28;20026;-57
2022/08/21 08:54:59;;;;;;;2.65;0.82;;;25.20;49.10;;;;;;5017788;28;20066;-59
2022/08/21 08:57:25;;;;;;;4.32;1.20;;;25.20;49.10;;;;;;5023981;28;20030;-66
2022/08/21 08:59:55;;;;;;;2.63;1.10;;;25.20;49.20;;;;;;5022039;28;20033;-59
2022/08/21 09:02:23;;;;;;;4.65;1.15;;;25.30;49.30;;;;;;5019565;28;20053;-60
2022/08/21 09:04:51;;;;;;;3.20;1.20;;;25.30;49.30;;;;;;5021409;28;20038;-58
2022/08/21 09:07:44;;;;;;;3.47;1.20;;;25.30;49.40;;;;;;5017514;28;20049;-60
2022/08/21 09:10:39;;;;;;;10.73;4.70;;;25.30;49.30;;;;;;5014899;28;20350;-64
2022/08/21 09:13:19;;;;;;;13.75;6.32;;;25.30;50.10;;;;;;4993923;28;20365;-64
2022/08/21 09:16:06;;;;;;;13.57;7.00;;;25.40;51.00;;;;;;5024437;28;20030;-63
2022/08/21 09:18:34;;;;;;;15.00;7.38;;;25.40;51.50;;;;;;5020797;28;20117;-66
2022/08/21 09:21:04;;;;;;;15.95;6.65;;;25.50;52.10;;;;;;5021079;28;20330;-62
2022/08/21 09:23:44;;;;;;;18.42;6.20;;;25.50;52.30;;;;;;5029324;28;20091;-63
2022/08/21 09:26:17;;;;;;;14.27;5.90;;;25.60;52.20;;;;;;5028726;28;20037;-62
2022/08/21 09:28:43;;;;;;;12.98;6.10;;;25.70;52.00;;;;;;5028103;28;20132;-59
2022/08/21 09:31:23;;;;;;;16.25;6.97;;;25.80;51.80;;;;;;5028505;28;20060;-60
2022/08/21 09:33:50;;;;;;;13.98;7.28;;;25.90;51.80;;;;;;5028297;28;20065;-60
2022/08/21 09:36:25;;;;;;;15.07;7.32;;;26.10;51.90;;;;;;5034462;28;20408;-62
2022/08/21 09:38:54;;;;;;;11.85;5.88;;;26.20;51.80;;;;;;5025885;28;20384;-61
2022/08/21 09:41:31;;;;;;;10.48;3.90;;;26.30;51.50;;;;;;5030630;28;20326;-63
2022/08/21 09:43:58;;;;;;;7.43;2.50;;;26.30;50.70;;;;;;5028660;28;20033;-64
2022/08/21 09:46:26;;;;;;;5.43;2.25;;;26.40;50.00;;;;;;5026592;28;20072;-60
2022/08/21 09:48:55;;;;;;;8.52;2.83;;;26.50;49.40;;;;;;5028441;28;20444;-56
2022/08/21 09:51:33;;;;;;;8.43;3.00;;;26.60;49.50;;;;;;5024359;28;20492;-59
2022/08/21 09:54:05;;;;;;;6.70;3.15;;;26.60;49.50;;;;;;5020960;28;20073;-59
2022/08/21 09:59:31;;;;;;;19.30;6.70;;;26.70;49.90;;;;;;5027406;28;20018;-61
2022/08/21 10:02:01;;;;;;;21.17;7.47;;;26.60;51.00;;;;;;5030322;28;20451;-55
2022/08/21 10:04:34;;;;;;;17.70;7.88;;;26.40;51.70;;;;;;5025414;28;20025;-65
2022/08/21 10:07:12;;;;;;;22.95;8.65;;;26.30;52.70;;;;;;5030437;28;20038;-59
2022/08/21 10:09:38;;;;;;;22.02;8.13;;;26.10;53.00;;;;;;5028561;28;20360;-57
2022/08/21 10:12:22;;;;;;;20.52;7.90;;;25.90;53.40;;;;;;5027076;28;20029;-60
2022/08/21 10:15:09;;;;;;;20.45;8.65;;;25.70;53.60;;;;;;5028913;28;20116;-56
2022/08/21 10:17:43;;;;;;;16.27;6.13;;;25.50;53.70;;;;;;5021906;28;20456;-61
2022/08/21 10:20:22;;;;;;;15.77;5.15;;;25.30;53.00;;;;;;5027665;28;20480;-60
2022/08/21 10:23:06;;;;;;;13.57;5.10;;;25.10;52.10;;;;;;5035585;28;20029;-60
2022/08/21 10:25:39;;;;;;;11.00;4.40;;;24.90;51.70;;;;;;5024967;28;20052;-57
2022/08/21 10:28:11;;;;;;;7.85;3.45;;;24.70;51.60;;;;;;5028684;28;20042;-60
2022/08/21 10:31:00;;;;;;;7.55;3.30;;;24.50;51.40;;;;;;5029007;28;20057;-61
2022/08/21 10:33:28;;;;;;;4.20;2.05;;;24.40;51.60;;;;;;5021110;28;20049;-62
2022/08/21 10:36:21;;;;;;;5.50;2.25;;;24.60;51.40;;;;;;5026253;28;20361;-60
2022/08/21 10:38:47;;;;;;;4.82;1.98;;;24.80;51.00;;;;;;5027973;28;20026;-61
2022/08/21 10:41:18;;;;;;;4.93;2.40;;;25.00;50.70;;;;;;5027615;28;20044;-60
2022/08/21 10:44:02;;;;;;;4.55;2.13;;;25.20;50.40;;;;;;5030594;28;20307;-61
2022/08/21 10:46:43;;;;;;;6.43;2.67;;;25.40;50.00;;;;;;5017508;28;20037;-62
2022/08/21 10:49:17;;;;;;;4.50;2.10;;;25.60;49.70;;;;;;5027980;28;20044;-59
2022/08/21 10:52:20;;;;;;;3.65;2.50;;;25.80;49.40;;;;;;5022338;28;20362;-61
2022/08/21 10:54:54;;;;;;;5.60;3.05;;;25.90;49.00;;;;;;5027086;28;20051;-60
2022/08/21 10:57:32;;;;;;;5.63;3.60;;;26.10;48.80;;;;;;5026184;28;20403;-61
2022/08/21 11:00:11;;;;;;;4.88;3.50;;;26.20;48.60;;;;;;5029274;28;20061;-57
2022/08/21 11:03:05;;;;;;;5.50;3.40;;;26.30;48.30;;;;;;5022153;28;20040;-60
2022/08/21 11:05:42;;;;;;;6.00;4.13;;;26.30;47.80;;;;;;5021271;28;20030;-61
2022/08/21 11:08:52;;;;;;;5.63;4.10;;;26.40;47.70;;;;;;5022957;28;20051;-62
2022/08/21 11:11:21;;;;;;;5.93;4.60;;;26.60;47.60;;;;;;5021529;28;20038;-58
2022/08/21 11:14:22;;;;;;;6.90;5.05;;;26.70;47.50;;;;;;5020268;28;20033;-63
2022/08/21 11:16:56;;;;;;;9.10;5.78;;;26.70;47.20;;;;;;5028783;28;20474;-62
2022/08/21 11:19:47;;;;;;;6.80;4.55;;;26.80;47.00;;;;;;5031017;28;20041;-62
2022/08/21 11:22:29;;;;;;;7.82;4.80;;;26.80;46.70;;;;;;5035513;28;20037;-62
2022/08/21 11:25:19;;;;;;;6.53;4.93;;;26.90;46.40;;;;;;5022174;28;20092;-61
2022/08/21 11:27:54;;;;;;;6.93;5.05;;;27.00;46.20;;;;;;5022090;28;20385;-61
2022/08/21 11:30:20;;;;;;;6.30;4.72;;;27.00;46.00;;;;;;5023224;28;20033;-60
2022/08/21 11:33:24;;;;;;;7.43;5.70;;;27.10;45.90;;;;;;5027382;28;20066;-58
2022/08/21 11:36:15;;;;;;;7.72;5.30;;;27.10;45.60;;;;;;5006174;28;20072;-55
2022/08/21 11:38:47;;;;;;;5.95;4.93;;;27.20;45.50;;;;;;5030984;28;20047;-61
2022/08/21 11:41:34;;;;;;;7.13;5.43;;;27.20;45.20;;;;;;5032262;28;20034;-60
2022/08/21 11:44:19;;;;;;;8.15;6.13;;;27.20;45.10;;;;;;5022651;28;20025;-59
2022/08/21 11:46:57;;;;;;;9.60;8.00;;;27.20;44.90;;;;;;5021708;28;20026;-59
2022/08/21 11:49:38;;;;;;;8.95;6.78;;;27.30;44.80;;;;;;5025736;28;20091;-59
2022/08/21 11:52:11;;;;;;;10.23;7.60;;;27.30;44.80;;;;;;5029290;28;20128;-58
2022/08/21 11:55:06;;;;;;;8.68;7.15;;;27.30;44.70;;;;;;5016223;28;20464;-59
2022/08/21 11:57:32;;;;;;;8.95;7.63;;;27.30;44.50;;;;;;5017684;28;20208;-60
2022/08/21 12:00:08;;;;;;;9.80;8.02;;;27.30;44.50;;;;;;5029429;28;20112;-58
2022/08/21 12:03:05;;;;;;;12.77;10.10;;;27.40;44.50;;;;;;5022789;28;20040;-61
2022/08/21 12:05:36;;;;;;;11.48;10.30;;;27.40;44.50;;;;;;5014684;28;20057;-57
2022/08/21 12:08:11;;;;;;;13.00;10.57;;;27.40;44.40;;;;;;5027039;28;20459;-59
2022/08/21 12:10:40;;;;;;;13.20;11.80;;;27.40;44.30;;;;;;5034702;28;20116;-59
2022/08/21 12:13:24;;;;;;;15.15;12.18;;;27.40;44.40;;;;;;5021644;28;20144;-57
2022/08/21 12:15:50;;;;;;;12.93;11.52;;;27.40;44.30;;;;;;5017991;28;20044;-58
2022/08/21 12:18:23;;;;;;;13.75;12.25;;;27.40;45.00;;;;;;5015698;28;21644;-59
2022/08/21 12:20:58;;;;;;;13.13;11.82;;;27.40;44.30;;;;;;5025952;28;20061;-57
2022/08/21 12:23:29;;;;;;;13.77;12.05;;;27.50;44.30;;;;;;5017142;28;20041;-58
2022/08/21 12:26:13;;;;;;;14.55;12.40;;;27.50;44.30;;;;;;5034097;28;20034;-57
2022/08/21 12:28:39;;;;;;;14.18;12.20;;;27.50;44.20;;;;;;5026415;28;20037;-57
2022/08/21 12:31:24;;;;;;;14.40;12.93;;;27.50;44.20;;;;;;5024884;28;20369;-57
2022/08/21 12:33:54;;;;;;;15.00;13.40;;;27.60;44.20;;;;;;5014846;28;20038;-56
2022/08/21 12:36:25;;;;;;;16.02;13.05;;;27.50;44.10;;;;;;5014496;28;20038;-55
2022/08/21 12:39:01;;;;;;;13.85;12.32;;;27.60;44.00;;;;;;5014052;28;20034;-59
2022/08/21 12:41:32;;;;;;;14.68;13.13;;;27.60;43.90;;;;;;5021365;28;20440;-58
2022/08/21 12:44:09;;;;;;;15.52;13.75;;;27.50;43.80;;;;;;5026527;28;20075;-56
2022/08/21 12:46:59;;;;;;;15.13;13.38;;;27.60;43.90;;;;;;5022286;28;20026;-58
2022/08/21 12:49:40;;;;;;;14.65;13.02;;;27.60;43.80;;;;;;5014481;28;20030;-56
2022/08/21 12:52:09;;;;;;;16.52;14.73;;;27.60;43.70;;;;;;5024766;28;20056;-54
2022/08/21 12:54:43;;;;;;;17.23;15.25;;;27.60;43.70;;;;;;5031566;28;20033;-57
2022/08/21 12:57:17;;;;;;;;;;;27.70;43.80;;;;;;5021574;28;20029;-59
2022/08/21 12:59:43;;;;;;;19.10;16.52;;;27.70;43.80;;;;;;5036831;28;19913;-57
2022/08/21 13:02:22;;;;;;;19.23;17.17;;;27.70;43.90;;;;;;5033641;28;20120;-58
2022/08/21 13:04:49;;;;;;;19.05;17.05;;;27.70;43.80;;;;;;5018462;28;20175;-56